Time;durP1;ratioP1;P1;durP2;ratioP2;P2;SDS_P1;SDS_P2;PMS_P1;PMS_P2;Temp;Humidity;BMP_temperature;BMP_pressure;BME280_temperature;BME280_humidity;BME280_pressure;Samples;Min_cycle;Max_cycle;Signal;HPM_P1;HPM_P2
2022/10/24 00:00:50;;;;;;;10.88;4.70;;;15.90;99.90;;;;;;4982540;28;36454;-77
2022/10/24 00:03:16;;;;;;;13.35;4.32;;;16.00;99.90;;;;;;4985218;28;37513;-79
2022/10/24 00:05:44;;;;;;;16.23;4.00;;;16.00;99.90;;;;;;4983686;28;38121;-78
2022/10/24 00:08:11;;;;;;;12.35;3.22;;;16.00;99.90;;;;;;4985095;28;38994;-78
2022/10/24 00:10:42;;;;;;;9.43;2.88;;;16.10;99.90;;;;;;4984924;28;37521;-79
2022/10/24 00:13:09;;;;;;;14.10;3.58;;;16.20;99.90;;;;;;5002857;28;37973;-79
2022/10/24 00:15:35;;;;;;;10.82;3.22;;;16.20;99.90;;;;;;4991214;28;38462;-79
2022/10/24 00:18:01;;;;;;;10.52;3.53;;;16.30;99.90;;;;;;4988156;28;37798;-78
2022/10/24 00:20:27;;;;;;;12.05;3.85;;;16.30;99.90;;;;;;4982573;28;36986;-78
2022/10/24 00:22:54;;;;;;;10.15;2.78;;;16.30;99.90;;;;;;4987964;28;36318;-78
2022/10/24 00:25:20;;;;;;;12.20;3.08;;;16.30;99.90;;;;;;5002521;28;38878;-79
2022/10/24 00:27:46;;;;;;;7.57;2.58;;;16.30;99.90;;;;;;5007265;28;38621;-79
2022/10/24 00:30:12;;;;;;;9.85;3.28;;;16.30;99.90;;;;;;5004148;28;38854;-78
2022/10/24 00:32:38;;;;;;;8.63;2.95;;;16.40;99.90;;;;;;4979741;28;36316;-79
2022/10/24 00:35:05;;;;;;;18.42;3.17;;;16.30;99.90;;;;;;4983865;28;37797;-78
2022/10/24 00:37:31;;;;;;;15.00;3.33;;;16.40;99.90;;;;;;5001615;28;38236;-78
2022/10/24 00:39:57;;;;;;;11.48;2.83;;;16.40;99.90;;;;;;5002219;28;39599;-78
2022/10/24 00:42:23;;;;;;;10.93;3.00;;;16.30;99.90;;;;;;4995823;28;38184;-78
2022/10/24 00:44:52;;;;;;;10.15;2.53;;;16.30;99.90;;;;;;4991634;28;37817;-78
2022/10/24 00:47:22;;;;;;;10.88;2.67;;;16.40;99.90;;;;;;4984517;28;39208;-78
2022/10/24 00:49:59;;;;;;;15.77;2.83;;;16.50;99.90;;;;;;4987817;28;37404;-78
2022/10/24 00:52:36;;;;;;;5.80;2.00;;;16.70;99.90;;;;;;5002013;28;37032;-79
2022/10/24 00:55:04;;;;;;;11.55;2.35;;;16.80;99.90;;;;;;4987146;28;39548;-80
2022/10/24 00:57:43;;;;;;;6.70;2.08;;;16.80;99.90;;;;;;5001378;28;48635;-79
2022/10/24 01:02:56;;;;;;;10.02;1.98;;;16.90;99.90;;;;;;5332281;23;20507;-79
2022/10/24 01:05:29;;;;;;;12.85;2.05;;;16.90;99.90;;;;;;4982427;28;39740;-79
2022/10/24 01:08:20;;;;;;;12.98;2.58;;;17.00;99.90;;;;;;5000427;28;39363;-80
2022/10/24 01:11:10;;;;;;;8.43;2.35;;;17.00;99.90;;;;;;5007421;28;49492;-79
2022/10/24 01:14:03;;;;;;;9.00;1.73;;;17.00;99.90;;;;;;4974209;28;47568;-78
2022/10/24 01:16:47;;;;;;;5.45;1.70;;;17.10;99.90;;;;;;4999800;28;48547;-79
2022/10/24 01:19:41;;;;;;;7.72;1.98;;;17.30;99.90;;;;;;4982477;28;40464;-79
2022/10/24 01:22:21;;;;;;;5.78;1.75;;;17.30;99.90;;;;;;5003011;28;37233;-80
2022/10/24 01:25:09;;;;;;;9.15;2.17;;;17.30;99.90;;;;;;4992775;28;37118;-79
2022/10/24 01:28:28;;;;;;;9.27;1.50;;;17.30;99.90;;;;;;4987012;28;47126;-79
2022/10/24 01:31:11;;;;;;;7.47;2.28;;;17.40;99.90;;;;;;4922789;28;48347;-79
2022/10/24 01:33:48;;;;;;;3.30;1.38;;;17.30;99.90;;;;;;4935132;28;46456;-79
2022/10/24 01:36:35;;;;;;;10.98;1.70;;;17.30;99.90;;;;;;4979080;28;37383;-79
2022/10/24 01:39:09;;;;;;;6.38;1.50;;;17.20;99.90;;;;;;5013406;28;39513;-79
2022/10/24 01:41:39;;;;;;;6.18;1.40;;;17.10;99.90;;;;;;4997392;28;47296;-77
2022/10/24 01:44:21;;;;;;;5.57;1.42;;;17.00;99.90;;;;;;4982879;28;37231;-79
2022/10/24 01:46:54;;;;;;;5.65;1.45;;;17.00;99.90;;;;;;5010207;28;37443;-79
2022/10/24 01:49:26;;;;;;;8.85;1.73;;;17.00;99.90;;;;;;4996260;28;39736;-78
2022/10/24 01:51:57;;;;;;;5.47;1.50;;;16.90;99.90;;;;;;4992342;28;38044;-78
2022/10/24 01:54:23;;;;;;;10.10;2.25;;;16.90;99.90;;;;;;5010176;28;38593;-80
2022/10/24 01:56:50;;;;;;;4.65;1.60;;;16.80;99.90;;;;;;4995432;28;36771;-80
2022/10/24 01:59:29;;;;;;;5.78;1.80;;;16.90;99.90;;;;;;5012262;28;39588;-78
2022/10/24 02:02:02;;;;;;;12.20;1.73;;;16.90;99.90;;;;;;4992873;28;37920;-78
2022/10/24 02:04:30;;;;;;;4.80;1.35;;;16.80;99.90;;;;;;4995145;28;47107;-79
2022/10/24 02:07:00;;;;;;;6.13;1.48;;;16.70;99.90;;;;;;5008129;28;34955;-78
2022/10/24 02:09:28;;;;;;;6.90;1.52;;;16.70;99.90;;;;;;4991744;28;40359;-78
2022/10/24 02:11:57;;;;;;;7.45;1.48;;;16.70;99.90;;;;;;4993341;28;38850;-78
2022/10/24 02:14:31;;;;;;;8.70;1.70;;;16.70;99.90;;;;;;4994126;28;37159;-80
2022/10/24 02:16:59;;;;;;;4.88;1.48;;;16.70;99.90;;;;;;4995094;28;34560;-78
2022/10/24 02:19:26;;;;;;;8.02;1.42;;;16.60;99.90;;;;;;4996650;28;40476;-78
2022/10/24 02:22:36;;;;;;;6.47;1.42;;;16.70;99.90;;;;;;4998736;28;37133;-78
2022/10/24 02:25:09;;;;;;;6.38;1.30;;;16.70;99.90;;;;;;4991056;28;47265;-78
2022/10/24 02:28:00;;;;;;;8.18;1.60;;;16.70;99.90;;;;;;5015328;28;48129;-79
2022/10/24 02:30:29;;;;;;;11.60;2.33;;;16.60;99.90;;;;;;5004389;28;39779;-79
2022/10/24 02:32:57;;;;;;;8.55;1.35;;;16.50;99.90;;;;;;5019548;28;38758;-79
2022/10/24 02:35:29;;;;;;;11.48;2.30;;;16.60;99.90;;;;;;4998714;28;39356;-79
2022/10/24 02:38:14;;;;;;;8.52;1.40;;;16.60;99.90;;;;;;4993002;28;35728;-78
2022/10/24 02:40:42;;;;;;;12.07;1.55;;;16.60;99.90;;;;;;5017364;28;48415;-79
2022/10/24 02:43:10;;;;;;;7.78;1.42;;;16.50;99.90;;;;;;5016856;28;39046;-78
2022/10/24 02:45:37;;;;;;;5.82;1.55;;;16.40;99.90;;;;;;4991438;28;39611;-79
2022/10/24 02:48:08;;;;;;;6.38;1.30;;;16.40;99.90;;;;;;5016917;28;37481;-78
2022/10/24 02:50:38;;;;;;;5.70;1.20;;;16.40;99.90;;;;;;4994976;28;39556;-78
2022/10/24 02:53:04;;;;;;;11.63;1.70;;;16.40;99.90;;;;;;5011996;28;38429;-79
2022/10/24 02:55:30;;;;;;;14.65;2.78;;;16.40;99.90;;;;;;5013105;28;39417;-79
2022/10/24 02:57:57;;;;;;;9.60;1.38;;;16.30;99.90;;;;;;5011735;28;37710;-78
2022/10/24 03:00:23;;;;;;;7.80;1.38;;;16.30;99.90;;;;;;4997791;28;37605;-79
2022/10/24 03:02:49;;;;;;;9.40;1.60;;;16.40;99.90;;;;;;5009601;28;39331;-78
2022/10/24 03:05:15;;;;;;;16.63;2.03;;;16.40;99.90;;;;;;4991026;28;39458;-78
2022/10/24 03:07:41;;;;;;;6.43;1.27;;;16.30;99.90;;;;;;4998239;28;37415;-78
2022/10/24 03:10:07;;;;;;;7.53;1.40;;;16.40;99.90;;;;;;5005439;28;39153;-78
2022/10/24 03:12:33;;;;;;;8.60;1.48;;;16.40;99.90;;;;;;5015528;28;36524;-78
2022/10/24 03:14:59;;;;;;;7.28;1.60;;;16.40;99.90;;;;;;4988370;28;39303;-78
2022/10/24 03:17:25;;;;;;;10.95;1.50;;;16.40;99.90;;;;;;5000731;28;38957;-78
2022/10/24 03:19:52;;;;;;;7.97;1.58;;;16.50;99.90;;;;;;5014882;28;38690;-79
2022/10/24 03:22:18;;;;;;;10.18;1.85;;;16.40;99.90;;;;;;4997981;28;39787;-79
2022/10/24 03:24:44;;;;;;;8.85;1.70;;;16.40;99.90;;;;;;5010905;28;39491;-78
2022/10/24 03:27:11;;;;;;;10.30;2.33;;;16.40;99.90;;;;;;4994906;28;35995;-77
2022/10/24 03:29:37;;;;;;;8.05;1.55;;;16.30;99.90;;;;;;5010782;28;38618;-79
2022/10/24 03:32:04;;;;;;;10.25;1.92;;;16.40;99.90;;;;;;4992837;28;39390;-80
2022/10/24 03:34:30;;;;;;;11.52;2.17;;;16.40;99.90;;;;;;4997120;28;37410;-79
2022/10/24 03:36:58;;;;;;;12.10;2.22;;;16.50;99.90;;;;;;4992009;28;36448;-78
2022/10/24 03:39:24;;;;;;;13.52;2.45;;;16.50;99.90;;;;;;4989755;28;37458;-78
2022/10/24 03:41:51;;;;;;;6.13;1.50;;;16.50;99.90;;;;;;5015749;28;38710;-78
2022/10/24 03:44:17;;;;;;;7.85;1.52;;;16.50;99.90;;;;;;4997408;28;37882;-78
2022/10/24 03:46:43;;;;;;;12.82;1.70;;;16.50;99.90;;;;;;5013639;28;37769;-79
2022/10/24 03:49:09;;;;;;;9.98;2.08;;;16.50;99.90;;;;;;4994900;28;38593;-79
2022/10/24 03:51:35;;;;;;;8.52;1.90;;;16.50;99.90;;;;;;4990787;28;37520;-79
2022/10/24 03:54:01;;;;;;;13.32;1.88;;;16.50;99.90;;;;;;4993561;28;36676;-78
2022/10/24 03:56:28;;;;;;;12.00;1.52;;;16.50;99.90;;;;;;4996780;28;35990;-79
2022/10/24 03:58:54;;;;;;;8.65;1.80;;;16.50;99.90;;;;;;5012306;28;38969;-79
2022/10/24 04:01:21;;;;;;;8.35;1.50;;;16.50;99.90;;;;;;4996641;28;37382;-80
2022/10/24 04:03:47;;;;;;;9.27;1.67;;;16.50;99.90;;;;;;4990493;28;38082;-77
2022/10/24 04:06:13;;;;;;;6.80;1.90;;;16.50;99.90;;;;;;4979752;28;37547;-76
2022/10/24 04:08:39;;;;;;;10.93;1.65;;;16.50;99.90;;;;;;5007667;28;39262;-78
2022/10/24 04:11:06;;;;;;;12.23;1.60;;;16.50;99.90;;;;;;4985924;28;39564;-79
2022/10/24 04:13:35;;;;;;;9.38;1.60;;;16.50;99.90;;;;;;4992605;28;39023;-78
2022/10/24 04:16:01;;;;;;;8.95;2.50;;;16.50;99.90;;;;;;4993412;28;38292;-79
2022/10/24 04:18:28;;;;;;;12.13;1.50;;;16.60;99.90;;;;;;5011970;28;39067;-78
2022/10/24 04:20:54;;;;;;;11.60;2.15;;;16.70;99.90;;;;;;5012088;28;39511;-78
2022/10/24 04:23:20;;;;;;;10.98;1.50;;;16.70;99.90;;;;;;5017463;28;38554;-78
2022/10/24 04:25:46;;;;;;;8.23;1.50;;;16.70;99.90;;;;;;5016982;28;37605;-78
2022/10/24 04:28:12;;;;;;;9.07;1.40;;;16.70;99.90;;;;;;4997856;28;37737;-78
2022/10/24 04:30:38;;;;;;;13.48;1.55;;;16.70;99.90;;;;;;5012046;28;38693;-78
2022/10/24 04:33:04;;;;;;;10.43;1.48;;;16.70;99.90;;;;;;4990347;28;39245;-80
2022/10/24 04:35:30;;;;;;;12.45;1.60;;;16.70;99.90;;;;;;5009099;28;38326;-78
2022/10/24 04:37:56;;;;;;;10.40;1.92;;;16.70;99.90;;;;;;5010927;28;38560;-79
2022/10/24 04:40:22;;;;;;;8.82;1.50;;;16.70;99.90;;;;;;4997868;28;37302;-79
2022/10/24 04:42:49;;;;;;;10.73;1.80;;;16.70;99.90;;;;;;4993165;28;39086;-78
2022/10/24 04:45:15;;;;;;;9.68;1.33;;;16.70;99.90;;;;;;5007054;28;37472;-78
2022/10/24 04:47:41;;;;;;;6.63;1.35;;;16.70;99.90;;;;;;5010427;28;39844;-79
2022/10/24 04:50:08;;;;;;;8.70;1.58;;;16.70;99.90;;;;;;5008551;28;38566;-78
2022/10/24 04:52:34;;;;;;;8.13;1.45;;;16.70;99.90;;;;;;4990814;28;37154;-78
2022/10/24 04:55:00;;;;;;;6.82;1.25;;;16.70;99.90;;;;;;4994488;28;36117;-79
2022/10/24 04:57:26;;;;;;;8.23;1.25;;;16.70;99.90;;;;;;4994727;28;40093;-78
2022/10/24 04:59:52;;;;;;;7.75;1.75;;;16.70;99.90;;;;;;5012969;28;39059;-79
2022/10/24 05:02:18;;;;;;;7.90;1.50;;;16.70;99.90;;;;;;5005904;28;38785;-77
2022/10/24 05:04:44;;;;;;;8.25;1.40;;;16.70;99.90;;;;;;4996405;28;37347;-78
2022/10/24 05:07:10;;;;;;;7.75;1.40;;;16.80;99.90;;;;;;5007921;28;38914;-79
2022/10/24 05:09:36;;;;;;;4.88;1.00;;;16.80;99.90;;;;;;4991882;28;38877;-78
2022/10/24 05:12:04;;;;;;;6.80;1.70;;;16.80;99.90;;;;;;5008292;28;39158;-81
2022/10/24 05:14:38;;;;;;;8.57;1.67;;;16.70;99.90;;;;;;5009125;28;37450;-76
2022/10/24 05:17:04;;;;;;;11.80;1.60;;;16.60;99.90;;;;;;5011430;28;40364;-80
2022/10/24 05:19:30;;;;;;;9.40;1.90;;;16.50;99.90;;;;;;4991804;28;40438;-79
2022/10/24 05:21:56;;;;;;;7.47;1.10;;;16.50;99.90;;;;;;4989940;28;37628;-79
2022/10/24 05:24:30;;;;;;;8.65;1.83;;;16.40;99.90;;;;;;5010381;28;37282;-79
2022/10/24 05:26:56;;;;;;;9.65;1.67;;;16.40;99.90;;;;;;5009113;28;37638;-78
2022/10/24 05:29:22;;;;;;;11.23;1.48;;;16.40;99.90;;;;;;4985521;28;38914;-79
2022/10/24 05:31:48;;;;;;;10.60;1.55;;;16.40;99.90;;;;;;4991363;28;40039;-77
2022/10/24 05:34:14;;;;;;;3.92;1.05;;;16.40;99.90;;;;;;4992283;28;35765;-81
2022/10/24 05:36:40;;;;;;;10.07;1.70;;;16.50;99.90;;;;;;4988818;28;39661;-80
2022/10/24 05:39:07;;;;;;;14.10;2.65;;;16.40;99.90;;;;;;4991720;28;39131;-78
2022/10/24 05:41:33;;;;;;;12.40;1.42;;;16.40;99.90;;;;;;4987401;28;40225;-78
2022/10/24 05:43:59;;;;;;;9.27;1.63;;;16.40;99.90;;;;;;5003037;28;37248;-77
2022/10/24 05:46:25;;;;;;;12.88;2.30;;;16.40;99.90;;;;;;4983814;28;39590;-78
2022/10/24 05:48:52;;;;;;;11.93;1.55;;;16.40;99.90;;;;;;4985899;28;37671;-79
2022/10/24 05:51:21;;;;;;;8.95;1.80;;;16.50;99.90;;;;;;4985868;28;40131;-79
2022/10/24 05:53:47;;;;;;;8.52;1.73;;;16.50;99.90;;;;;;4974574;28;35667;-77
2022/10/24 05:56:16;;;;;;;11.40;1.80;;;16.50;99.90;;;;;;4977061;28;37420;-77
2022/10/24 05:58:43;;;;;;;13.60;2.25;;;16.40;99.90;;;;;;4984476;28;37588;-78
2022/10/24 06:01:09;;;;;;;13.10;1.98;;;16.30;99.90;;;;;;4984061;28;38560;-79
2022/10/24 06:03:35;;;;;;;7.30;1.83;;;16.40;99.90;;;;;;4996495;28;37312;-78
2022/10/24 06:06:04;;;;;;;7.55;1.63;;;16.40;99.90;;;;;;4980604;28;36287;-78
2022/10/24 06:08:33;;;;;;;14.35;2.25;;;16.40;99.90;;;;;;4998509;28;47200;-79
2022/10/24 06:10:59;;;;;;;8.88;1.48;;;16.40;99.90;;;;;;4976330;28;38253;-77
2022/10/24 06:13:26;;;;;;;8.80;1.92;;;16.40;99.90;;;;;;4978181;28;38439;-78
2022/10/24 06:15:52;;;;;;;7.80;1.33;;;16.40;99.90;;;;;;4994784;28;38963;-77
2022/10/24 06:18:27;;;;;;;8.57;1.60;;;16.40;99.90;;;;;;4997672;28;38930;-80
2022/10/24 06:20:53;;;;;;;14.05;2.15;;;16.40;99.90;;;;;;4998605;28;39166;-79
2022/10/24 06:23:23;;;;;;;18.92;1.85;;;16.50;99.90;;;;;;4996738;28;37873;-79
2022/10/24 06:25:49;;;;;;;7.75;1.30;;;16.50;99.90;;;;;;4985281;28;38176;-80
2022/10/24 06:28:15;;;;;;;9.55;2.08;;;16.50;99.90;;;;;;5007249;28;38703;-79
2022/10/24 06:30:41;;;;;;;10.02;1.67;;;16.50;99.90;;;;;;4998674;28;37950;-79
2022/10/24 06:33:07;;;;;;;7.82;1.55;;;16.50;99.90;;;;;;4993030;28;38584;-79
2022/10/24 06:35:33;;;;;;;9.23;1.70;;;16.60;99.90;;;;;;5018043;28;39009;-79
2022/10/24 06:38:00;;;;;;;6.95;1.40;;;16.50;99.90;;;;;;5012241;28;38735;-80
2022/10/24 06:40:27;;;;;;;5.00;1.42;;;16.60;99.90;;;;;;5014089;28;38046;-80
2022/10/24 06:43:04;;;;;;;9.13;2.55;;;16.60;99.90;;;;;;5011200;28;37180;-80
2022/10/24 06:45:30;;;;;;;13.18;1.95;;;16.60;99.90;;;;;;5008474;28;49074;-80
2022/10/24 06:47:56;;;;;;;10.45;2.03;;;16.60;99.90;;;;;;5004546;28;37816;-80
2022/10/24 06:50:22;;;;;;;8.52;1.58;;;16.50;99.90;;;;;;4994949;28;37290;-80
2022/10/24 06:52:51;;;;;;;6.65;1.13;;;16.50;99.90;;;;;;4985785;28;37703;-80
2022/10/24 06:55:21;;;;;;;5.22;1.40;;;16.50;99.90;;;;;;5013179;28;39121;-82
2022/10/24 06:57:47;;;;;;;11.48;1.65;;;16.60;99.90;;;;;;5019346;28;38431;-81
2022/10/24 07:00:14;;;;;;;6.55;1.33;;;16.50;99.90;;;;;;5004723;28;38818;-80
2022/10/24 07:02:40;;;;;;;8.80;1.35;;;16.50;99.90;;;;;;4985680;28;36280;-80
2022/10/24 07:05:11;;;;;;;15.10;1.95;;;16.50;99.90;;;;;;4988610;28;40726;-78
2022/10/24 07:07:39;;;;;;;7.97;1.58;;;16.60;99.90;;;;;;5008921;28;38805;-79
2022/10/24 07:10:05;;;;;;;7.50;1.80;;;16.60;99.90;;;;;;4989324;28;37761;-79
2022/10/24 07:12:32;;;;;;;6.28;1.45;;;16.60;99.90;;;;;;5001642;28;38296;-80
2022/10/24 07:14:58;;;;;;;12.45;1.63;;;16.60;99.90;;;;;;4992483;28;37515;-80
2022/10/24 07:17:24;;;;;;;12.05;1.90;;;16.60;99.90;;;;;;4984868;28;38164;-78
2022/10/24 07:19:59;;;;;;;7.55;1.48;;;16.60;99.90;;;;;;5001011;28;38189;-80
2022/10/24 07:22:25;;;;;;;10.45;1.98;;;16.70;99.90;;;;;;5005460;28;38448;-78
2022/10/24 07:24:53;;;;;;;8.95;1.77;;;16.70;99.90;;;;;;4981284;28;38597;-78
2022/10/24 07:27:19;;;;;;;11.35;2.33;;;16.70;99.90;;;;;;4981277;28;38454;-79
2022/10/24 07:29:46;;;;;;;7.25;1.65;;;16.60;99.90;;;;;;5000058;28;38866;-78
2022/10/24 07:32:12;;;;;;;9.55;1.90;;;16.50;99.90;;;;;;4983958;28;36283;-79
2022/10/24 07:34:39;;;;;;;8.23;1.92;;;16.50;99.90;;;;;;4982239;28;39610;-80
2022/10/24 07:37:06;;;;;;;8.95;1.83;;;16.50;99.90;;;;;;4993562;28;39464;-78
2022/10/24 07:39:32;;;;;;;7.68;1.67;;;16.60;99.90;;;;;;4992891;28;38680;-79
2022/10/24 07:41:58;;;;;;;9.80;1.95;;;16.60;99.90;;;;;;4999626;28;36873;-79
2022/10/24 07:44:24;;;;;;;8.07;1.50;;;16.70;99.90;;;;;;4976575;28;38864;-80
2022/10/24 07:46:50;;;;;;;7.90;2.08;;;16.60;99.90;;;;;;4966171;28;37380;-79
2022/10/24 07:49:16;;;;;;;9.75;1.88;;;16.60;99.90;;;;;;4998349;28;39882;-80
2022/10/24 07:51:45;;;;;;;6.78;1.60;;;16.50;99.90;;;;;;4985214;28;36851;-81
2022/10/24 07:54:12;;;;;;;11.45;1.63;;;16.40;99.90;;;;;;4985493;28;38883;-78
2022/10/24 07:56:38;;;;;;;6.80;1.80;;;16.40;99.90;;;;;;4981586;28;37594;-77
2022/10/24 07:59:04;;;;;;;6.80;1.90;;;16.20;99.90;;;;;;4996319;28;39422;-79
2022/10/24 08:01:30;;;;;;;13.10;1.90;;;16.00;99.90;;;;;;4978110;28;36197;-78
2022/10/24 08:03:57;;;;;;;13.43;2.00;;;15.80;99.90;;;;;;4987882;28;39318;-77
2022/10/24 08:06:27;;;;;;;12.98;1.65;;;15.70;99.90;;;;;;4968299;28;37683;-78
2022/10/24 08:08:54;;;;;;;11.68;1.80;;;15.50;99.90;;;;;;4979226;28;38225;-79
2022/10/24 08:11:23;;;;;;;12.52;2.20;;;15.40;99.90;;;;;;4979006;28;37214;-80
2022/10/24 08:13:51;;;;;;;10.55;1.70;;;15.20;99.90;;;;;;4987394;28;39240;-79
2022/10/24 08:16:20;;;;;;;12.65;2.13;;;15.10;99.90;;;;;;4988408;28;37972;-81
2022/10/24 08:18:46;;;;;;;8.13;1.67;;;15.00;99.90;;;;;;5003581;28;37362;-80
2022/10/24 08:21:14;;;;;;;17.05;1.83;;;15.00;99.90;;;;;;5001546;28;37356;-80
2022/10/24 08:23:44;;;;;;;11.35;1.80;;;15.00;99.90;;;;;;5008903;28;38407;-80
2022/10/24 08:26:16;;;;;;;16.75;2.33;;;14.90;99.90;;;;;;4995045;28;40453;-80
2022/10/24 08:28:44;;;;;;;12.90;2.40;;;15.00;99.90;;;;;;5004951;28;38232;-79
2022/10/24 08:31:19;;;;;;;18.08;2.17;;;14.90;99.90;;;;;;4993405;28;37270;-79
2022/10/24 08:33:46;;;;;;;11.35;2.10;;;14.90;99.90;;;;;;4993598;28;40185;-80
2022/10/24 08:36:27;;;;;;;10.45;1.63;;;14.90;99.90;;;;;;4997440;28;39006;-78
2022/10/24 08:38:53;;;;;;;17.75;3.55;;;14.80;99.90;;;;;;5008863;28;39024;-81
2022/10/24 08:41:40;;;;;;;11.90;1.98;;;14.80;99.90;;;;;;4985048;28;36699;-79
2022/10/24 08:44:53;;;;;;;11.77;1.90;;;14.90;99.90;;;;;;4991017;28;38771;-78
2022/10/24 08:47:34;;;;;;;16.65;2.50;;;14.90;99.90;;;;;;4979183;28;38394;-79
2022/10/24 08:50:30;;;;;;;17.88;2.33;;;14.90;99.90;;;;;;4994395;28;37077;-80
2022/10/24 08:53:10;;;;;;;14.43;1.77;;;14.90;99.90;;;;;;5013087;28;48768;-79
2022/10/24 08:55:46;;;;;;;16.00;2.38;;;14.90;99.90;;;;;;5006757;28;49454;-80
2022/10/24 08:58:43;;;;;;;18.27;2.53;;;14.90;99.90;;;;;;5010438;28;39164;-80
2022/10/24 09:01:38;;;;;;;11.40;1.77;;;14.90;99.90;;;;;;4995203;28;37727;-80
2022/10/24 09:04:13;;;;;;;16.08;2.28;;;14.90;99.90;;;;;;5011731;28;37072;-81
2022/10/24 09:06:41;;;;;;;14.48;2.88;;;14.90;99.90;;;;;;5001514;28;39630;-80
2022/10/24 09:09:36;;;;;;;24.05;2.33;;;14.90;99.90;;;;;;5010019;28;39371;-81
2022/10/24 09:12:14;;;;;;;11.43;1.85;;;14.90;99.90;;;;;;5013665;28;39773;-79
2022/10/24 09:15:03;;;;;;;18.45;3.03;;;14.80;99.90;;;;;;5008686;28;36418;-80
2022/10/24 09:17:41;;;;;;;19.15;2.55;;;14.90;99.90;;;;;;4984246;28;38178;-79
2022/10/24 09:20:27;;;;;;;14.90;2.22;;;15.00;99.90;;;;;;5001434;28;37558;-81
2022/10/24 09:23:03;;;;;;;19.33;2.75;;;15.10;99.90;;;;;;5014919;28;37382;-81
2022/10/24 09:25:34;;;;;;;14.25;2.47;;;15.20;99.90;;;;;;5000457;28;48011;-81
2022/10/24 09:28:15;;;;;;;14.52;2.75;;;15.30;99.90;;;;;;5020627;28;39568;-81
2022/10/24 09:30:42;;;;;;;17.65;2.10;;;15.40;99.90;;;;;;5001848;28;48464;-80
2022/10/24 09:33:28;;;;;;;13.25;2.13;;;15.50;99.90;;;;;;5004974;28;36637;-80
2022/10/24 09:35:59;;;;;;;11.38;1.67;;;15.50;99.90;;;;;;5119293;23;38394;-81
2022/10/24 09:41:28;;;;;;;11.50;1.67;;;15.40;99.90;;;;;;5092803;23;20047;-81
2022/10/24 09:44:03;;;;;;;8.05;1.88;;;15.30;99.90;;;;;;4965929;28;37168;-82
2022/10/24 09:46:44;;;;;;;15.48;1.95;;;15.30;99.90;;;;;;4935269;28;48653;-81
2022/10/24 09:49:21;;;;;;;15.88;2.88;;;15.30;99.90;;;;;;4980101;28;38685;-80
2022/10/24 09:52:19;;;;;;;14.25;2.03;;;15.30;99.90;;;;;;4972127;28;38700;-80
2022/10/24 09:57:22;;;;;;;8.55;1.73;;;15.30;99.90;;;;;;5598814;23;20055;-80
2022/10/24 10:02:46;;;;;;;8.48;1.50;;;15.40;99.90;;;;;;5191767;23;20032;-81
2022/10/24 10:05:24;;;;;;;12.65;2.00;;;15.50;99.90;;;;;;5078008;23;38340;-79
2022/10/24 10:07:51;;;;;;;8.23;1.45;;;15.50;99.90;;;;;;5409982;23;46614;-81
2022/10/24 10:10:40;;;;;;;10.13;1.60;;;15.50;99.90;;;;;;5554362;23;39874;-79
2022/10/24 10:13:24;;;;;;;14.85;1.90;;;15.50;99.90;;;;;;5148430;23;37736;-80
2022/10/24 10:18:45;;;;;;;12.18;1.70;;;15.50;99.90;;;;;;5015310;23;20054;-82
2022/10/24 10:21:24;;;;;;;8.10;1.95;;;15.70;99.90;;;;;;4975018;28;38971;-81
2022/10/24 10:23:55;;;;;;;10.57;1.80;;;15.80;99.90;;;;;;5191229;23;38111;-81
2022/10/24 10:29:07;;;;;;;13.65;1.65;;;15.70;99.90;;;;;;5347302;23;20057;-80
2022/10/24 10:31:47;;;;;;;11.15;1.85;;;15.60;99.90;;;;;;5251019;23;48215;-79
2022/10/24 10:34:22;;;;;;;8.32;1.83;;;15.40;99.90;;;;;;5011092;28;38894;-81
2022/10/24 10:37:12;;;;;;;10.27;1.70;;;15.30;99.90;;;;;;5016524;28;38162;-81
2022/10/24 10:39:59;;;;;;;9.25;1.65;;;15.30;99.90;;;;;;5020919;28;48848;-80
2022/10/24 10:42:38;;;;;;;10.95;2.00;;;15.20;99.90;;;;;;5012820;28;38387;-82
2022/10/24 10:45:59;;;;;;;13.20;2.25;;;14.90;99.90;;;;;;4980618;28;37581;-79
2022/10/24 10:49:07;;;;;;;7.40;1.83;;;14.90;99.90;;;;;;4968368;23;38946;-83
2022/10/24 10:51:50;;;;;;;9.45;1.85;;;14.80;99.90;;;;;;5012692;28;49422;-79
2022/10/24 10:54:47;;;;;;;9.20;2.22;;;14.90;99.90;;;;;;5006139;28;38299;-80
2022/10/24 10:57:49;;;;;;;10.23;1.95;;;14.90;99.90;;;;;;4991856;28;39335;-80
2022/10/24 11:00:39;;;;;;;;;;;15.10;99.90;;;;;;5165554;23;38872;-79
2022/10/24 11:03:21;;;;;;;10.13;1.98;;;15.10;99.90;;;;;;4981727;28;37926;-80
2022/10/24 11:06:00;;;;;;;14.80;2.67;;;15.20;99.90;;;;;;4994395;28;39278;-81
2022/10/24 11:11:27;;;;;;;12.02;2.72;;;15.30;99.90;;;;;;5169581;23;20061;-83
2022/10/24 11:17:13;;;;;;;7.78;1.80;;;15.50;99.90;;;;;;4925952;26;20026;-80
2022/10/24 11:19:48;;;;;;;9.18;2.10;;;15.50;99.90;;;;;;5021625;28;48378;-81
2022/10/24 11:22:49;;;;;;;9.93;1.60;;;15.50;99.90;;;;;;5000404;28;40109;-80
2022/10/24 11:25:24;;;;;;;8.77;2.33;;;15.40;99.90;;;;;;5005001;23;36824;-81
2022/10/24 11:28:07;;;;;;;8.25;2.17;;;15.40;99.90;;;;;;4986931;28;38908;-80
2022/10/24 11:30:50;;;;;;;9.80;2.20;;;15.50;99.90;;;;;;4986567;28;46055;-78
2022/10/24 11:33:28;;;;;;;9.57;3.22;;;15.60;99.90;;;;;;5000339;28;37297;-82
2022/10/24 11:36:16;;;;;;;10.20;3.47;;;15.50;99.90;;;;;;4991167;28;36347;-79
2022/10/24 11:39:06;;;;;;;11.55;2.80;;;15.50;99.90;;;;;;4971297;28;47482;-80
2022/10/24 11:41:55;;;;;;;9.95;2.28;;;15.40;99.90;;;;;;5004160;28;49311;-79
2022/10/24 11:44:43;;;;;;;9.93;1.98;;;15.50;99.90;;;;;;5003749;28;37448;-79
2022/10/24 11:47:37;;;;;;;10.85;1.90;;;15.50;99.90;;;;;;5007177;28;37689;-79
2022/10/24 11:50:36;;;;;;;9.40;1.90;;;15.60;99.90;;;;;;5007841;28;37895;-78
2022/10/24 11:53:30;;;;;;;11.20;1.80;;;15.70;99.90;;;;;;4966368;28;48729;-79
2022/10/24 11:56:02;;;;;;;10.45;1.70;;;15.70;99.90;;;;;;5020319;28;49417;-79
2022/10/24 11:58:35;;;;;;;13.32;1.90;;;15.70;99.90;;;;;;5014795;28;38499;-78
2022/10/24 12:01:46;;;;;;;13.70;2.38;;;15.70;99.90;;;;;;4998081;28;39326;-80
2022/10/24 12:04:57;;;;;;;12.73;2.10;;;15.70;99.90;;;;;;4969977;28;48584;-80
2022/10/24 12:07:44;;;;;;;6.22;2.00;;;15.60;99.90;;;;;;5017231;28;37557;-81
2022/10/24 12:11:03;;;;;;;12.32;2.85;;;15.50;99.90;;;;;;5015370;28;37202;-79
2022/10/24 12:13:49;;;;;;;7.65;1.52;;;15.40;99.90;;;;;;4958447;28;37635;-79
2022/10/24 12:16:51;;;;;;;13.18;2.63;;;15.40;99.90;;;;;;5012781;28;38780;-79
2022/10/24 12:19:20;;;;;;;12.73;2.03;;;15.20;99.90;;;;;;5002102;28;38202;-79
2022/10/24 12:21:57;;;;;;;15.27;2.42;;;15.20;99.90;;;;;;5001237;28;36514;-78
2022/10/24 12:24:35;;;;;;;12.23;2.30;;;15.20;99.90;;;;;;4994593;28;37851;-79
2022/10/24 12:27:19;;;;;;;8.77;2.40;;;15.10;99.90;;;;;;5018830;28;39622;-81
2022/10/24 12:35:39;;;;;;;8.95;1.92;;;15.20;99.90;;;;;;5077400;23;20911;-80
2022/10/24 12:38:18;;;;;;;8.52;2.30;;;15.30;99.90;;;;;;4997950;28;38446;-83
2022/10/24 12:40:44;;;;;;;7.88;1.60;;;15.50;99.90;;;;;;4984817;28;39846;-80
2022/10/24 12:43:35;;;;;;;10.43;1.55;;;15.60;99.90;;;;;;4981178;28;37475;-81
2022/10/24 12:46:14;;;;;;;7.80;2.10;;;15.90;99.90;;;;;;4984633;28;37503;-82
2022/10/24 12:48:42;;;;;;;8.77;1.83;;;16.10;99.90;;;;;;4988062;28;48695;-81
2022/10/24 12:51:37;;;;;;;8.05;1.50;;;16.10;99.90;;;;;;4998469;28;37834;-82
2022/10/24 12:54:15;;;;;;;9.20;1.77;;;16.00;99.90;;;;;;4978293;28;37363;-82
2022/10/24 12:56:52;;;;;;;10.07;1.85;;;15.90;99.90;;;;;;4987345;28;40880;-82
2022/10/24 12:59:29;;;;;;;11.13;2.38;;;15.90;99.90;;;;;;4992044;28;39549;-82
2022/10/24 13:02:14;;;;;;;4.60;1.25;;;15.90;99.90;;;;;;5007027;28;38433;-81
2022/10/24 13:04:43;;;;;;;9.98;1.83;;;15.90;99.90;;;;;;4995145;28;47325;-80
2022/10/24 13:07:10;;;;;;;10.38;1.90;;;15.80;99.90;;;;;;5015198;28;39494;-83
2022/10/24 13:10:13;;;;;;;7.63;1.88;;;15.80;99.90;;;;;;4994375;28;39363;-82
2022/10/24 13:13:14;;;;;;;9.85;1.77;;;15.80;99.90;;;;;;4980510;28;47012;-79
2022/10/24 13:16:15;;;;;;;12.68;1.92;;;15.90;99.90;;;;;;4988640;28;48773;-80
2022/10/24 13:19:07;;;;;;;8.75;1.45;;;16.00;99.90;;;;;;4991892;28;47207;-78
2022/10/24 13:21:55;;;;;;;12.97;2.27;;;16.10;99.90;;;;;;5008111;28;48934;-78
2022/10/24 13:24:42;;;;;;;11.07;2.10;;;16.30;99.90;;;;;;4988158;28;37302;-79
2022/10/24 13:27:13;;;;;;;12.40;1.80;;;16.30;99.90;;;;;;4994491;28;37429;-82
2022/10/24 13:29:40;;;;;;;8.48;1.92;;;16.50;99.90;;;;;;4981350;28;38733;-81
2022/10/24 13:32:06;;;;;;;13.57;2.35;;;16.60;99.90;;;;;;4988188;28;38925;-81
2022/10/24 13:34:32;;;;;;;10.93;2.03;;;16.60;99.90;;;;;;4987716;28;39481;-84
2022/10/24 13:37:25;;;;;;;9.27;1.90;;;16.60;99.90;;;;;;4980363;28;36004;-81
2022/10/24 13:40:06;;;;;;;9.27;1.98;;;16.70;99.90;;;;;;4994178;28;48073;-82
2022/10/24 13:42:41;;;;;;;7.32;1.70;;;16.90;99.90;;;;;;4985922;28;47386;-80
2022/10/24 13:45:44;;;;;;;8.63;1.40;;;17.10;99.90;;;;;;4974588;28;38892;-77